CheckWX is a tool to help pilots better visualize weather data.  It is not intended as a substitute for an official pre-flight weather briefing.

08:21:13 UTC

CYFC TAF
Fredericton Airport
Fredericton, Canada
TAF CYFC 190538Z 1906/1918 VRB03KT P6SM FEW060 BECMG 1914/1916 28007KT RMK FCST BASED ON AUTO OBS. NXT FCST BY 191200Z

Mar-19@
06:00 UTC

Mar-19 @ 06:00 UTC

Mar-19@
14:00 UTC

Mar-19 @ 14:00 UTC

TAF CYFC 190538Z 1906/1918 VRB03KT P6SM FEW060
Wind
  • Variable at 3 KTS
Cloud Levels
  • Few at 6,000' AGL

Mar-19@
14:00 UTC

Mar-19 @ 14:00 UTC

Mar-19@
18:00 UTC

Mar-19 @ 18:00 UTC

BECMG 1914/1916 28007KT RMK FCST BASED ON AUTO OBS. NXT FCST BY 191200Z

Becoming

Becoming Conditions expected by Tue, Mar 19, 2019 @ 16:00 UTC

Wind
  • 280° at 7 KTS
Cloud Levels
  • Few at 6,000' AGL